METAR Data
IDs: Format: Raw Decoded Include TAF

Data at: 0925 UTC 20 Sep 2018

PAOU 200918Z AUTO 23010KT 9SM OVC014 09/08 A3039 RMK AO2
PAOU 200856Z AUTO 23010KT 10SM OVC017 09/07 A3039 RMK AO2 SLP292 T00940072 401110094 58003
PAOU 200756Z AUTO 27010KT 10SM SCT021 OVC027 10/07 A3040 RMK AO2 SLP294 T01000067
PAOU 200718Z AUTO 27008KT 10SM BKN027 10/06 A3040 RMK AO2
PAOU 200656Z AUTO 27010KT 10SM CLR 09/05 A3040 RMK AO2 SLP294 T00940050
PAOU 200641Z AUTO 29010KT 10SM FEW017 10/06 A3040 RMK AO2
PAOU 200556Z AUTO 28009KT 10SM BKN017 09/07 A3040 RMK AO2 SLP296 T00940067 10111 20094 58001
PAOU 200546Z AUTO 29008KT 10SM SCT015 09/07 A3040 RMK AO2
PAOU 200511Z AUTO 29009KT 10SM BKN017 OVC041 10/07 A3041 RMK AO2
PAOU 200456Z AUTO 30009KT 10SM SCT015 OVC041 10/07 A3041 RMK AO2 SLP297 T01000067
PAOU 200356Z AUTO 30012KT 10SM BKN017 OVC023 10/07 A3041 RMK AO2 SLP297 T01000072
PAOU 200338Z AUTO 30012KT 10SM SCT013 BKN021 OVC044 10/07 A3041 RMK AO2
PAOU 200307Z AUTO 30013KT 10SM BKN013 OVC044 11/08 A3041 RMK AO2
PAOU 200256Z AUTO 30014KT 10SM SCT013 OVC044 11/08 A3041 RMK AO2 SLP298 T01060078 56004
PAOU 200156Z AUTO 29013KT 10SM OVC042 11/07 A3041 RMK AO2 SLP299 T01110067
PAOU 200056Z AUTO 29011KT 10SM OVC036 11/06 A3041 RMK AO2 SLP298 T01110061
PAOU 192356Z AUTO 29010KT 10SM FEW023 OVC032 11/06 A3042 RMK AO2 SLP302 60000 T01110061 10111 20100 58002
PAOU 192256Z AUTO 30011KT 10SM OVC032 11/07 A3042 RMK AO2 SLP302 T01110072
PAOU 192156Z AUTO 31010KT 10SM FEW017 OVC033 11/07 A3043 RMK AO2 SLP304 T01110072
PAOU 192152Z AUTO 31009KT 10SM FEW017 OVC031 11/07 A3043 RMK AO2
PAOU 192056Z AUTO 32010KT 10SM SCT019 BKN025 OVC036 11/08 A3043 RMK AO2 SLP304 60000 T01110078 56001
PAOU 191956Z AUTO 35008KT 10SM OVC032 11/08 A3043 RMK AO2 SLP304 T01060083
PAOU 191856Z AUTO 01010KT 10SM SCT017 OVC023 10/08 A3043 RMK AO2 RAB23E46 SLP305 P0000 T01000083
PAOU 191808Z AUTO 35007KT 10SM FEW013 OVC029 11/08 A3044 RMK AO2
PAOU 191756Z AUTO 34009KT 10SM FEW013 OVC031 11/08 A3044 RMK AO2 SLP309 T01060078 10106 20100 53006
PAOU 191718Z AUTO 31008KT 10SM FEW012 SCT023 OVC035 11/08 A3044 RMK AO2
PAOU 191656Z AUTO 31009KT 10SM SCT014 BKN019 BKN025 11/08 A3044 RMK AO2 SLP307 T01060083
PAOU 191640Z AUTO 31007KT 10SM SCT014 BKN019 10/08 A3044 RMK AO2
PAOU 191618Z AUTO 31008KT 10SM BKN014 BKN019 10/08 A3043 RMK AO2
PAOU 191556Z AUTO 31007KT 10SM FEW014 10/08 A3043 RMK AO2 SLP304 T01000078
PAOU 191456Z AUTO 32007KT 10SM SCT014 10/08 A3042 RMK AO2 SLP302 T01000078 51003
PAOU 191356Z AUTO 33009KT 10SM SCT039 10/07 A3042 RMK AO2 SLP302 T01000072
PAOU 191327Z AUTO 32010KT 10SM FEW015 SCT021 OVC039 11/08 A3042 RMK AO2
PAOU 191256Z AUTO 32010KT 10SM BKN018 BKN022 OVC039 11/08 A3042 RMK AO2 SLP302 T01060078
PAOU 191212Z AUTO 34009KT 10SM FEW016 BKN023 11/07 A3042 RMK AO2
PAOU 191156Z AUTO 34009KT 10SM SCT014 11/08 A3041 RMK AO2 SLP299 70001 T01060078 10106 20106 52001
PAOU 191056Z AUTO 35009KT 10SM BKN016 OVC024 11/08 A3041 RMK AO2 SLP299 T01060078
PAOU 191010Z AUTO 34009KT 10SM OVC016 11/08 A3041 RMK AO2
PAOU 190956Z AUTO 35010KT 10SM OVC014 11/08 A3041 RMK AO2 SLP298 T01060083
PAOU 190954Z AUTO 35010KT 10SM OVC014 11/08 A3041 RMK AO2
PAOU 190856Z AUTO 34012KT 10SM OVC020 11/08 A3041 RMK AO2 SLP297 T01060078 401220094 51006
PAOU 190810Z AUTO 33014KT 10SM BKN018 11/08 A3041 RMK AO2
PAOU 190756Z AUTO 33013KT 10SM SCT016 11/08 A3041 RMK AO2 SLP297 T01060083
PAOU 190656Z AUTO 33011KT 10SM FEW014 11/08 A3040 RMK AO2 SLP294 T01060083
PAOU 190556Z AUTO 34013KT 10SM CLR 11/08 A3039 RMK AO2 SLP291 T01060083 10117 20106 53007
PAOU 190456Z AUTO 34012KT 10SM FEW014 11/08 A3037 RMK AO2 SLP285 T01060083
PAOU 190356Z AUTO 33011KT 10SM FEW014 OVC055 11/08 A3037 RMK AO2 SLP284 T01110083
PAOU 190256Z AUTO 33012KT 10SM OVC060 11/08 A3037 RMK AO2 SLP283 T01110083 56001
PAOU 190156Z AUTO 33014KT 10SM SCT015 OVC055 11/08 A3037 RMK AO2 SLP283 T01110083
PAOU 190152Z AUTO 33013KT 10SM BKN015 OVC055 11/09 A3037 RMK AO2
PAOU 190112Z AUTO 33010KT 9SM BKN013 BKN042 OVC060 11/09 A3037 RMK AO2
PAOU 190056Z AUTO 33012KT 10SM BKN015 BKN021 OVC060 11/09 A3037 RMK AO2 SLP284 T01110089
PAOU 190048Z AUTO 32012KT 10SM BKN015 BKN021 OVC044 11/09 A3037 RMK AO2
PAOU 182341Z AUTO 30010KT 10SM -RA FEW009 OVC033 10/08 A3037 RMK AO2 RAB04 P0001
PAOU 182328Z AUTO 31012KT 4SM -RA BR SCT007 BKN022 OVC038 09/08 A3038 RMK AO2 RAB04 P0001
PAOU 182323Z AUTO 32013KT 3SM -RA BR BKN011 BKN017 OVC037 10/08 A3038 RMK AO2 RAB04 CIG 006V014 P0001
PAOU 182310Z AUTO 32017KT 4SM -RA BR FEW009 BKN029 OVC037 11/09 A3038 RMK AO2 RAB04 P0000
PAOU 182256Z AUTO 31012KT 9SM FEW016 BKN037 OVC048 11/08 A3038 RMK AO2 SLP286 T01110078
PAOU 182234Z AUTO 30010KT 10SM FEW016 BKN048 OVC060 12/07 A3037 RMK AO2
PAOU 182203Z AUTO 30011KT 10SM BKN021 BKN040 BKN060 12/07 A3037 RMK AO2
PAOU 182156Z AUTO 30011KT 10SM SCT021 BKN040 12/08 A3037 RMK AO2 SLP284 T01220078